createdAt,value
2018-11-28T00:02:41.866Z,20.60
2018-11-28T00:07:38.720Z,20.60
2018-11-28T00:12:35.418Z,20.53
2018-11-28T00:17:32.120Z,20.10
2018-11-28T00:22:28.813Z,20.47
2018-11-28T00:27:25.473Z,22.27
2018-11-28T00:32:22.234Z,26.67
2018-11-28T00:37:18.916Z,33.20
2018-11-28T00:42:15.702Z,29.23
2018-11-28T00:47:12.446Z,28.30
2018-11-28T00:52:09.086Z,27.13
2018-11-28T00:57:05.783Z,22.07
2018-11-28T01:02:02.511Z,21.57
2018-11-28T01:07:01.765Z,21.53
2018-11-28T01:11:58.419Z,22.23
2018-11-28T01:16:55.139Z,20.70
2018-11-28T01:21:51.792Z,20.43
2018-11-28T01:26:48.516Z,20.53
2018-11-28T01:31:45.249Z,22.53
2018-11-28T01:36:42.130Z,22.60
2018-11-28T01:41:38.849Z,24.27
2018-11-28T01:46:35.531Z,26.47
2018-11-28T01:51:32.200Z,28.70
2018-11-28T01:56:28.860Z,23.77
2018-11-28T02:01:25.624Z,22.20
2018-11-28T02:06:22.282Z,21.00
2018-11-28T02:11:19.058Z,20.93
2018-11-28T02:16:15.791Z,21.50
2018-11-28T02:21:12.549Z,20.33
2018-11-28T02:26:09.372Z,19.93
2018-11-28T02:31:06.099Z,20.73
2018-11-28T02:36:02.778Z,19.50
2018-11-28T02:40:59.594Z,19.60
2018-11-28T02:46:32.658Z,19.00
2018-11-28T02:51:29.432Z,18.77
2018-11-28T02:56:26.225Z,18.40
2018-11-28T03:01:22.914Z,19.73
2018-11-28T03:06:19.636Z,19.37
2018-11-28T03:11:16.349Z,20.17
2018-11-28T03:16:14.117Z,20.70
2018-11-28T03:21:10.816Z,20.30
2018-11-28T03:26:07.518Z,20.80
2018-11-28T03:31:04.287Z,22.33
2018-11-28T03:36:01.039Z,21.57
2018-11-28T03:40:57.720Z,20.97
2018-11-28T03:45:54.486Z,21.13
2018-11-28T03:50:51.222Z,23.07
2018-11-28T03:55:47.998Z,22.20
2018-11-28T04:00:44.882Z,21.63
2018-11-28T04:05:41.756Z,21.13
2018-11-28T04:10:38.504Z,21.10
2018-11-28T04:15:35.236Z,22.30
2018-11-28T04:20:31.986Z,22.63
2018-11-28T04:25:28.710Z,21.57
2018-11-28T04:30:25.476Z,22.10
2018-11-28T04:35:22.282Z,22.47
2018-11-28T04:40:19.458Z,22.40
2018-11-28T04:45:17.886Z,22.17
2018-11-28T04:50:14.691Z,22.70
2018-11-28T04:55:12.871Z,23.20
2018-11-28T05:00:11.126Z,23.07
2018-11-28T05:05:08.463Z,36.93
2018-11-28T05:10:08.034Z,24.10
2018-11-28T05:15:05.957Z,22.23
2018-11-28T05:20:02.928Z,22.13
2018-11-28T05:24:59.669Z,21.60
2018-11-28T05:29:56.578Z,22.97
2018-11-28T05:34:53.372Z,23.03
2018-11-28T05:39:50.000Z,23.57
2018-11-28T05:44:46.725Z,23.30
2018-11-28T05:49:43.351Z,23.13
2018-11-28T05:54:40.064Z,22.87
2018-11-28T05:59:36.836Z,23.73
2018-11-28T06:04:33.586Z,24.40
2018-11-28T06:09:30.270Z,23.60
2018-11-28T06:14:27.038Z,23.33
2018-11-28T06:19:23.728Z,22.60
2018-11-28T06:24:20.432Z,23.53
2018-11-28T06:29:17.131Z,25.27
2018-11-28T06:34:13.903Z,23.50
2018-11-28T06:39:10.560Z,23.87
2018-11-28T06:44:07.242Z,24.80
2018-11-28T06:49:03.934Z,24.33
2018-11-28T06:54:00.764Z,25.37
2018-11-28T06:58:57.469Z,25.10
2018-11-28T07:03:54.218Z,25.13
2018-11-28T07:08:50.956Z,25.33
2018-11-28T07:13:47.667Z,25.97
2018-11-28T07:18:50.090Z,25.37
2018-11-28T07:23:46.851Z,25.73
2018-11-28T07:28:43.560Z,24.83
2018-11-28T07:33:40.304Z,25.07
2018-11-28T07:38:36.964Z,25.03
2018-11-28T07:43:33.704Z,26.33
2018-11-28T07:48:30.419Z,26.53
2018-11-28T07:53:27.137Z,26.30
2018-11-28T07:58:23.877Z,24.00
2018-11-28T08:03:20.640Z,25.63
2018-11-28T08:08:17.319Z,25.20
2018-11-28T08:13:14.034Z,23.83
2018-11-28T08:18:10.771Z,25.07
2018-11-28T08:23:07.525Z,23.90
2018-11-28T08:28:04.540Z,23.97
2018-11-28T08:33:01.266Z,24.37
2018-11-28T08:37:58.040Z,23.70
2018-11-28T08:42:56.325Z,23.20
2018-11-28T08:47:53.608Z,22.93
2018-11-28T08:52:50.322Z,22.87
2018-11-28T08:57:47.012Z,23.47
2018-11-28T09:02:44.130Z,22.70
2018-11-28T09:07:42.866Z,23.27
2018-11-28T09:12:39.648Z,24.00
2018-11-28T09:17:36.298Z,23.90
2018-11-28T09:22:33.046Z,22.60
2018-11-28T09:27:29.742Z,23.47
2018-11-28T09:32:26.634Z,22.83
2018-11-28T09:37:23.326Z,22.87
2018-11-28T09:42:20.005Z,21.97
2018-11-28T09:47:16.712Z,22.70
2018-11-28T09:52:13.485Z,24.10
2018-11-28T09:57:10.243Z,23.83
2018-11-28T10:02:06.861Z,25.10
2018-11-28T10:07:03.587Z,24.63
2018-11-28T10:12:00.253Z,26.13
2018-11-28T10:16:57.504Z,25.90
2018-11-28T10:21:53.761Z,25.90
2018-11-28T10:26:50.494Z,25.07
2018-11-28T10:31:47.209Z,24.43
2018-11-28T10:36:43.912Z,23.93
2018-11-28T10:41:40.676Z,23.57
2018-11-28T10:46:37.467Z,26.27
2018-11-28T10:51:34.165Z,21.97
2018-11-28T10:56:30.847Z,24.03
2018-11-28T11:01:27.828Z,24.37
2018-11-28T11:06:30.291Z,23.30
2018-11-28T11:11:31.566Z,23.60
2018-11-28T11:16:29.798Z,22.33
2018-11-28T11:21:26.998Z,22.83
2018-11-28T11:26:23.853Z,22.83
2018-11-28T11:31:20.677Z,22.27
2018-11-28T11:36:17.377Z,23.20
2018-11-28T11:41:14.081Z,21.13
2018-11-28T11:46:10.820Z,20.83
2018-11-28T11:51:07.479Z,20.97
2018-11-28T11:56:04.256Z,21.03
2018-11-28T12:01:01.056Z,20.63
2018-11-28T12:05:58.047Z,19.33
2018-11-28T12:10:54.818Z,19.57
2018-11-28T12:15:51.550Z,18.17
2018-11-28T12:20:55.208Z,15.93
2018-11-28T12:25:52.008Z,15.27
2018-11-28T12:30:48.761Z,14.27
2018-11-28T12:35:45.526Z,15.13
2018-11-28T12:40:42.282Z,14.50
2018-11-28T12:45:40.875Z,14.30
2018-11-28T12:50:37.587Z,13.73
2018-11-28T12:55:34.948Z,14.80
2018-11-28T13:00:32.728Z,13.87
2018-11-28T13:05:29.434Z,14.70
2018-11-28T13:10:28.101Z,13.80
2018-11-28T13:15:25.276Z,14.93
2018-11-28T13:20:22.152Z,13.70
2018-11-28T13:25:19.515Z,14.93
2018-11-28T13:30:17.655Z,14.93
2018-11-28T13:35:15.121Z,13.93
2018-11-28T13:40:12.435Z,15.40
2018-11-28T13:45:10.131Z,13.90
2018-11-28T13:50:07.982Z,13.80
2018-11-28T13:55:37.650Z,13.07
2018-11-28T14:00:06.470Z,14.43
2018-11-28T14:05:03.722Z,13.53
2018-11-28T14:10:00.413Z,14.50
2018-11-28T14:14:57.093Z,14.37
2018-11-28T14:19:53.850Z,13.87
2018-11-28T14:24:50.609Z,15.23
2018-11-28T14:29:47.276Z,16.03
2018-11-28T14:34:43.982Z,16.33
2018-11-28T14:39:40.697Z,17.60
2018-11-28T14:44:37.429Z,18.47
2018-11-28T14:49:34.152Z,16.07
2018-11-28T14:54:30.846Z,17.20
2018-11-28T14:59:27.764Z,17.67
2018-11-28T15:04:24.437Z,18.57
2018-11-28T15:09:27.386Z,18.03
2018-11-28T15:14:24.087Z,17.90
2018-11-28T15:19:20.751Z,17.37
2018-11-28T15:24:17.559Z,18.23
2018-11-28T15:29:14.363Z,16.70
2018-11-28T15:34:11.272Z,17.20
2018-11-28T15:39:08.441Z,17.77
2018-11-28T15:44:05.221Z,18.50
2018-11-28T15:49:01.922Z,16.23
2018-11-28T15:53:58.640Z,16.80
2018-11-28T15:58:55.425Z,16.80
2018-11-28T16:03:52.208Z,17.37
2018-11-28T16:08:53.128Z,19.10
2018-11-28T16:13:49.969Z,18.30
2018-11-28T16:18:47.690Z,17.47
2018-11-28T16:23:44.422Z,23.20
2018-11-28T16:28:41.268Z,19.20
2018-11-28T16:33:37.982Z,20.53
2018-11-28T16:38:34.656Z,21.80
2018-11-28T16:43:31.368Z,19.90
2018-11-28T16:48:28.072Z,17.63
2018-11-28T16:53:24.790Z,18.83
2018-11-28T16:58:21.549Z,20.17
2018-11-28T17:03:18.253Z,18.87
2018-11-28T17:08:14.926Z,19.53
2018-11-28T17:13:11.618Z,20.00
2018-11-28T17:18:08.268Z,20.33
2018-11-28T17:23:05.505Z,19.27
2018-11-28T17:28:02.268Z,20.60
2018-11-28T17:32:59.010Z,19.83
2018-11-28T17:37:55.817Z,21.33
2018-11-28T17:42:53.040Z,21.60
2018-11-28T17:47:49.835Z,21.43
2018-11-28T17:52:47.444Z,24.23
2018-11-28T17:57:44.219Z,22.47
2018-11-28T18:02:41.000Z,23.63
2018-11-28T18:07:39.752Z,23.27
2018-11-28T18:12:36.493Z,22.03
2018-11-28T18:17:33.214Z,24.00
2018-11-28T18:22:29.944Z,23.50
2018-11-28T18:27:26.884Z,25.43
2018-11-28T18:32:23.612Z,27.87
2018-11-28T18:37:24.241Z,24.37
2018-11-28T18:42:17.222Z,24.73
2018-11-28T18:47:13.964Z,25.40
2018-11-28T18:52:10.669Z,24.20
2018-11-28T18:57:07.336Z,24.53
2018-11-28T19:02:05.460Z,23.13
2018-11-28T19:07:02.144Z,25.17
2018-11-28T19:11:58.900Z,24.47
2018-11-28T19:16:55.637Z,24.30
2018-11-28T19:21:52.394Z,25.43
2018-11-28T19:26:49.140Z,24.67
2018-11-28T19:31:45.886Z,25.07
2018-11-28T19:36:42.829Z,24.90
2018-11-28T19:41:39.543Z,25.40
2018-11-28T19:46:36.316Z,24.67
2018-11-28T19:51:32.997Z,27.03
2018-11-28T19:56:31.771Z,25.47
2018-11-28T20:01:29.292Z,24.67
2018-11-28T20:13:51.842Z,24.73
2018-11-28T20:18:49.613Z,26.00
2018-11-28T20:23:46.378Z,25.23
2018-11-28T20:28:43.115Z,25.03
2018-11-28T20:33:40.281Z,25.37
2018-11-28T20:38:37.053Z,24.77
2018-11-28T20:43:33.757Z,25.20
2018-11-28T20:48:30.497Z,23.87
2018-11-28T20:53:27.248Z,24.53
2018-11-28T20:58:23.960Z,23.60
2018-11-28T21:03:20.742Z,22.60
2018-11-28T21:08:17.456Z,22.70
2018-11-28T21:13:14.139Z,22.57
2018-11-28T21:18:10.812Z,22.10
2018-11-28T21:23:08.542Z,21.70
2018-11-28T21:28:05.267Z,21.77
2018-11-28T21:33:01.975Z,21.27
2018-11-28T21:37:58.648Z,20.67
2018-11-28T21:42:55.390Z,22.67
2018-11-28T21:47:52.178Z,22.30
2018-11-28T21:52:49.164Z,22.23
2018-11-28T21:57:45.874Z,22.20
2018-11-28T22:02:42.820Z,21.33
2018-11-28T22:07:39.653Z,22.03
2018-11-28T22:12:36.347Z,23.20
2018-11-28T22:17:34.110Z,23.30
2018-11-28T22:22:29.790Z,22.13
2018-11-28T22:27:26.667Z,23.07
2018-11-28T22:32:23.410Z,22.33
2018-11-28T22:37:20.080Z,23.87
2018-11-28T22:42:16.832Z,22.17
2018-11-28T22:47:13.594Z,22.20
2018-11-28T22:52:10.342Z,20.97
2018-11-28T22:57:07.126Z,22.77
2018-11-28T23:02:34.868Z,23.33
2018-11-28T23:07:31.518Z,21.40
2018-11-28T23:12:28.274Z,20.57
2018-11-28T23:17:25.022Z,20.93
2018-11-28T23:22:21.713Z,21.57
2018-11-28T23:27:18.483Z,21.63
2018-11-28T23:32:15.170Z,22.03
2018-11-28T23:37:11.972Z,20.93
2018-11-28T23:42:08.699Z,21.80
2018-11-28T23:47:05.672Z,22.80
2018-11-28T23:52:02.406Z,20.93
2018-11-28T23:56:59.132Z,21.00
